createdAt,value
2019-04-03T00:01:10.837Z,11.99
2019-04-03T00:03:40.911Z,12.02
2019-04-03T00:06:10.976Z,11.99
2019-04-03T00:08:41.105Z,11.89
2019-04-03T00:11:11.931Z,11.74
2019-04-03T00:13:42.557Z,11.83
2019-04-03T00:16:15.280Z,11.90
2019-04-03T00:18:46.928Z,11.81
2019-04-03T00:21:17.757Z,11.81
2019-04-03T00:23:48.020Z,11.77
2019-04-03T00:26:18.350Z,11.78
2019-04-03T00:28:48.396Z,11.78
2019-04-03T00:31:18.553Z,11.78
2019-04-03T00:33:48.566Z,11.91
2019-04-03T00:36:18.670Z,11.69
2019-04-03T00:38:48.695Z,11.68
2019-04-03T00:41:18.771Z,11.70
2019-04-03T00:43:48.803Z,11.89
2019-04-03T00:46:18.948Z,11.83
2019-04-03T00:48:48.968Z,11.88
2019-04-03T00:51:19.024Z,11.84
2019-04-03T00:53:49.082Z,11.68
2019-04-03T00:56:19.149Z,11.88
2019-04-03T00:58:49.192Z,11.88
2019-04-03T01:01:19.278Z,11.76
2019-04-03T01:03:49.328Z,11.68
2019-04-03T01:06:19.413Z,11.68
2019-04-03T01:08:49.508Z,11.73
2019-04-03T01:11:19.644Z,11.44
2019-04-03T01:13:49.704Z,11.39
2019-04-03T01:16:19.765Z,11.34
2019-04-03T01:18:49.830Z,11.46
2019-04-03T01:21:19.879Z,11.33
2019-04-03T01:23:50.065Z,11.12
2019-04-03T01:26:20.199Z,11.19
2019-04-03T01:28:51.509Z,11.40
2019-04-03T01:31:21.611Z,11.21
2019-04-03T01:33:51.718Z,11.26
2019-04-03T01:36:21.839Z,11.40
2019-04-03T01:38:51.891Z,11.33
2019-04-03T01:41:21.924Z,11.25
2019-04-03T01:43:53.738Z,11.27
2019-04-03T01:46:23.816Z,11.19
2019-04-03T01:48:53.967Z,11.19
2019-04-03T01:51:24.231Z,11.27
2019-04-03T01:53:54.354Z,11.35
2019-04-03T01:56:24.472Z,11.04
2019-04-03T01:58:54.734Z,11.01
2019-04-03T02:01:24.869Z,11.08
2019-04-03T02:03:54.951Z,10.96
2019-04-03T02:06:25.087Z,11.02
2019-04-03T02:08:55.240Z,10.94
2019-04-03T02:11:25.345Z,10.95
2019-04-03T02:13:55.570Z,10.98
2019-04-03T02:16:25.644Z,10.68
2019-04-03T02:18:55.980Z,10.74
2019-04-03T02:21:27.777Z,10.73
2019-04-03T02:23:57.960Z,10.90
2019-04-03T02:26:28.079Z,10.95
2019-04-03T02:28:58.134Z,10.96
2019-04-03T02:31:28.198Z,11.00
2019-04-03T02:34:01.145Z,10.66
2019-04-03T02:36:30.233Z,10.83
2019-04-03T02:39:00.539Z,10.61
2019-04-03T02:41:30.609Z,10.86
2019-04-03T02:44:00.688Z,10.82
2019-04-03T02:46:30.932Z,10.82
2019-04-03T02:49:01.226Z,10.81
2019-04-03T02:51:31.686Z,10.95
2019-04-03T02:54:03.098Z,11.10
2019-04-03T02:56:33.350Z,11.04
2019-04-03T02:59:03.409Z,11.12
2019-04-03T03:01:33.485Z,11.16
2019-04-03T03:04:03.555Z,11.08
2019-04-03T03:06:33.767Z,11.18
2019-04-03T03:09:04.230Z,11.15
2019-04-03T03:11:34.282Z,11.10
2019-04-03T03:14:07.311Z,11.14
2019-04-03T03:16:36.307Z,11.09
2019-04-03T03:19:06.483Z,11.07
2019-04-03T03:21:37.051Z,10.92
2019-04-03T03:24:07.703Z,10.99
2019-04-03T03:26:38.350Z,10.94
2019-04-03T03:29:17.918Z,11.02
2019-04-03T03:32:05.268Z,11.17
2019-04-03T03:34:14.546Z,11.04
2019-04-03T03:36:44.829Z,11.12
2019-04-03T03:39:15.152Z,10.98
2019-04-03T03:41:45.380Z,10.85
2019-04-03T03:44:16.254Z,10.82
2019-04-03T03:46:46.661Z,10.74
2019-04-03T03:49:17.959Z,10.80
2019-04-03T03:51:49.423Z,10.67
2019-04-03T03:54:19.787Z,10.69
2019-04-03T03:56:50.181Z,10.76
2019-04-03T03:59:20.961Z,10.77
2019-04-03T04:01:51.047Z,10.83
2019-04-03T04:04:21.136Z,10.96
2019-04-03T04:06:51.270Z,10.95
2019-04-03T04:09:21.388Z,10.96
2019-04-03T04:11:52.280Z,10.98
2019-04-03T04:14:23.398Z,10.70
2019-04-03T04:16:53.709Z,10.66
2019-04-03T04:19:23.722Z,10.68
2019-04-03T04:21:54.039Z,10.74
2019-04-03T04:24:24.639Z,10.84
2019-04-03T04:26:56.650Z,10.82
2019-04-03T04:29:26.759Z,10.84
2019-04-03T04:31:56.941Z,10.77
2019-04-03T04:34:27.157Z,10.82
2019-04-03T04:36:57.224Z,10.88
2019-04-03T04:39:28.451Z,10.88
2019-04-03T04:41:59.146Z,10.97
2019-04-03T04:44:29.211Z,10.90
2019-04-03T04:46:59.347Z,10.78
2019-04-03T04:49:29.378Z,10.81
2019-04-03T04:51:59.439Z,10.83
2019-04-03T04:54:30.534Z,10.94
2019-04-03T04:57:02.023Z,10.85
2019-04-03T04:59:32.026Z,10.89
2019-04-03T05:02:02.515Z,10.88
2019-04-03T05:04:32.527Z,10.93
2019-04-03T05:07:02.782Z,10.88
2019-04-03T05:09:34.427Z,10.73
2019-04-03T05:12:04.557Z,10.80
2019-04-03T05:14:34.596Z,10.93
2019-04-03T05:17:04.642Z,10.98
2019-04-03T05:19:34.700Z,10.81
2019-04-03T05:22:04.941Z,10.76
2019-04-03T05:24:35.113Z,10.68
2019-04-03T05:27:07.700Z,10.87
2019-04-03T05:29:37.170Z,10.95
2019-04-03T05:32:09.535Z,11.00
2019-04-03T05:34:39.364Z,11.02
2019-04-03T05:37:11.419Z,11.01
2019-04-03T05:39:41.512Z,10.95
2019-04-03T05:42:11.596Z,10.92
2019-04-03T05:44:41.756Z,10.89
2019-04-03T05:47:11.830Z,10.99
2019-04-03T05:49:41.955Z,11.03
2019-04-03T05:52:12.034Z,10.91
2019-04-03T05:54:44.183Z,10.86
2019-04-03T05:57:14.409Z,10.87
2019-04-03T05:59:44.664Z,10.80
2019-04-03T06:02:18.572Z,10.88
2019-04-03T06:04:46.520Z,10.93
2019-04-03T06:07:18.944Z,11.01
2019-04-03T06:09:49.020Z,11.10
2019-04-03T06:12:19.393Z,11.13
2019-04-03T06:14:50.506Z,11.15
2019-04-03T06:17:21.122Z,11.22
2019-04-03T06:19:51.275Z,11.18
2019-04-03T06:22:22.123Z,11.29
2019-04-03T06:24:52.301Z,11.18
2019-04-03T06:27:22.366Z,11.26
2019-04-03T06:29:55.310Z,11.21
2019-04-03T06:32:24.964Z,11.25
2019-04-03T06:34:55.290Z,11.29
2019-04-03T06:37:25.655Z,11.24
2019-04-03T06:39:55.771Z,11.23
2019-04-03T06:42:25.830Z,11.31
2019-04-03T06:44:55.865Z,11.30
2019-04-03T06:47:26.175Z,11.26
2019-04-03T06:49:56.459Z,11.35
2019-04-03T06:52:26.488Z,11.42
2019-04-03T06:54:56.534Z,11.44
2019-04-03T06:57:26.655Z,11.43
2019-04-03T06:59:56.793Z,11.45
2019-04-03T07:02:27.978Z,11.45
2019-04-03T07:04:59.758Z,11.53
2019-04-03T07:07:34.192Z,11.54
2019-04-03T07:10:04.203Z,11.53
2019-04-03T07:12:34.105Z,11.51
2019-04-03T07:15:04.689Z,11.56
2019-04-03T07:17:34.722Z,11.62
2019-04-03T07:20:13.672Z,11.64
2019-04-03T07:22:37.261Z,11.67
2019-04-03T07:25:08.076Z,11.62
2019-04-03T07:27:41.263Z,11.74
2019-04-03T07:30:09.886Z,11.68
2019-04-03T07:32:40.104Z,11.57
2019-04-03T07:35:13.188Z,11.62
2019-04-03T07:37:43.215Z,11.62
2019-04-03T07:40:14.014Z,11.57
2019-04-03T07:42:44.359Z,11.63
2019-04-03T07:45:15.071Z,11.64
2019-04-03T07:47:45.142Z,11.73
2019-04-03T07:50:15.302Z,11.73
2019-04-03T07:52:47.503Z,11.83
2019-04-03T07:55:17.123Z,11.81
2019-04-03T07:57:47.185Z,11.84
2019-04-03T08:00:17.370Z,11.86
2019-04-03T08:02:49.643Z,11.97
2019-04-03T08:05:19.201Z,11.89
2019-04-03T08:07:49.624Z,12.03
2019-04-03T08:10:19.734Z,11.98
2019-04-03T08:12:49.764Z,12.01
2019-04-03T08:15:20.444Z,12.04
2019-04-03T08:17:50.902Z,12.00
2019-04-03T08:20:21.562Z,11.99
2019-04-03T08:22:51.683Z,12.03
2019-04-03T08:25:21.803Z,11.98
2019-04-03T08:27:54.491Z,12.06
2019-04-03T08:30:25.141Z,12.01
2019-04-03T08:32:55.254Z,12.03
2019-04-03T08:35:25.617Z,12.09
2019-04-03T08:37:55.744Z,12.04
2019-04-03T08:40:25.783Z,12.09
2019-04-03T08:42:55.851Z,12.09
2019-04-03T08:45:26.038Z,12.07
2019-04-03T08:47:56.061Z,11.94
2019-04-03T08:50:26.785Z,11.99
2019-04-03T08:52:57.977Z,11.87
2019-04-03T08:55:28.051Z,11.86
2019-04-03T08:58:05.089Z,12.03
2019-04-03T09:00:35.221Z,11.96
2019-04-03T09:03:05.318Z,11.94
2019-04-03T09:05:35.416Z,11.76
2019-04-03T09:08:05.534Z,11.78
2019-04-03T09:10:37.022Z,11.76
2019-04-03T09:13:16.866Z,11.77
2019-04-03T09:15:39.222Z,11.86
2019-04-03T09:18:09.359Z,11.91
2019-04-03T09:20:41.065Z,12.00
2019-04-03T09:23:11.372Z,12.00
2019-04-03T09:25:41.585Z,11.99
2019-04-03T09:28:11.870Z,11.89
2019-04-03T09:30:41.987Z,12.04
2019-04-03T09:33:12.366Z,11.83
2019-04-03T09:35:43.335Z,11.89
2019-04-03T09:38:13.478Z,11.98
2019-04-03T09:40:43.556Z,11.90
2019-04-03T09:43:13.705Z,11.96
2019-04-03T09:45:43.875Z,12.07
2019-04-03T09:48:14.191Z,12.07
2019-04-03T09:50:46.334Z,12.01
2019-04-03T09:53:16.130Z,12.05
2019-04-03T09:55:46.208Z,11.95
2019-04-03T09:58:16.319Z,11.95
2019-04-03T10:00:46.399Z,11.86
2019-04-03T10:03:16.522Z,11.74
2019-04-03T10:05:46.635Z,11.88
2019-04-03T10:08:16.893Z,11.83
2019-04-03T10:10:47.807Z,11.76
2019-04-03T10:13:18.291Z,11.80
2019-04-03T10:15:48.344Z,11.80
2019-04-03T10:18:20.721Z,11.92
2019-04-03T10:20:50.216Z,12.03
2019-04-03T10:23:20.308Z,11.98
2019-04-03T10:25:52.931Z,11.98
2019-04-03T10:28:22.226Z,12.04
2019-04-03T10:30:53.465Z,11.95
2019-04-03T10:33:24.404Z,12.00
2019-04-03T10:35:54.825Z,11.90
2019-04-03T10:38:24.913Z,12.01
2019-04-03T10:40:56.366Z,11.99
2019-04-03T10:43:27.220Z,12.03
2019-04-03T10:45:57.445Z,11.83
2019-04-03T10:48:28.626Z,11.83
2019-04-03T10:50:58.922Z,12.05
2019-04-03T10:53:28.970Z,12.05
2019-04-03T10:56:00.164Z,11.99
2019-04-03T10:58:30.723Z,12.15
2019-04-03T11:01:02.230Z,12.10
2019-04-03T11:03:32.299Z,12.22
2019-04-03T11:06:02.510Z,12.22
2019-04-03T11:08:32.638Z,12.18
2019-04-03T11:11:04.907Z,12.26
2019-04-03T11:13:34.884Z,12.26
2019-04-03T11:16:05.056Z,12.09
2019-04-03T11:18:35.165Z,12.16
2019-04-03T11:21:05.372Z,12.17
2019-04-03T11:23:38.996Z,12.16
2019-04-03T11:26:07.249Z,12.24
2019-04-03T11:28:38.354Z,12.09
2019-04-03T11:31:08.862Z,12.09
2019-04-03T11:33:39.158Z,12.05
2019-04-03T11:36:09.252Z,12.18
2019-04-03T11:38:39.335Z,12.22
2019-04-03T11:41:14.519Z,12.21
2019-04-03T11:43:41.410Z,12.29
2019-04-03T11:46:11.664Z,12.26
2019-04-03T11:48:43.337Z,12.28
2019-04-03T11:51:13.620Z,12.26
2019-04-03T11:53:45.524Z,12.17
2019-04-03T11:56:15.415Z,12.00
2019-04-03T11:58:45.556Z,12.02
2019-04-03T12:01:17.568Z,12.07
2019-04-03T12:03:50.392Z,12.10
2019-04-03T12:06:20.220Z,12.12
2019-04-03T12:08:51.341Z,12.25
2019-04-03T12:11:21.645Z,12.28
2019-04-03T12:13:51.795Z,12.16
2019-04-03T12:16:23.986Z,12.32
2019-04-03T12:18:53.874Z,12.32
2019-04-03T12:21:23.926Z,12.39
2019-04-03T12:23:54.367Z,12.48
2019-04-03T12:26:24.469Z,12.29
2019-04-03T12:28:54.848Z,12.29
2019-04-03T12:31:25.016Z,12.46
2019-04-03T12:34:02.738Z,12.28
2019-04-03T12:36:28.245Z,12.28
2019-04-03T12:38:58.361Z,12.35
2019-04-03T12:41:28.804Z,12.20
2019-04-03T12:43:59.143Z,12.19
2019-04-03T12:46:47.378Z,12.31
2019-04-03T12:49:17.466Z,12.42
2019-04-03T12:51:47.682Z,12.53
2019-04-03T12:54:20.602Z,12.50
2019-04-03T12:56:49.696Z,12.52
2019-04-03T12:59:20.944Z,12.50
2019-04-03T13:01:51.218Z,12.69
2019-04-03T13:04:25.597Z,12.69
2019-04-03T13:06:55.621Z,12.68
2019-04-03T13:09:26.422Z,12.69
2019-04-03T13:11:56.549Z,12.70
2019-04-03T13:14:27.654Z,12.62
2019-04-03T13:16:58.280Z,12.62
2019-04-03T13:19:28.786Z,12.62
2019-04-03T13:21:59.312Z,12.74
2019-04-03T13:24:29.413Z,12.69
2019-04-03T13:26:59.725Z,12.69
2019-04-03T13:29:29.889Z,12.77
2019-04-03T13:32:00.077Z,12.84
2019-04-03T13:34:32.148Z,12.92
2019-04-03T13:37:02.230Z,12.78
2019-04-03T13:39:33.637Z,12.82
2019-04-03T13:42:04.248Z,12.75
2019-04-03T13:44:34.319Z,12.72
2019-04-03T13:47:04.402Z,12.74
2019-04-03T13:49:34.500Z,12.79
2019-04-03T13:52:08.479Z,12.80
2019-04-03T13:54:36.323Z,12.79
2019-04-03T13:57:06.407Z,12.89
2019-04-03T13:59:36.492Z,12.96
2019-04-03T14:02:06.572Z,13.06
2019-04-03T14:04:37.022Z,13.11
2019-04-03T14:07:08.718Z,13.19
2019-04-03T14:09:39.296Z,12.93
2019-04-03T14:12:10.030Z,13.13
2019-04-03T14:14:40.049Z,13.16
2019-04-03T14:17:13.041Z,13.22
2019-04-03T14:19:45.921Z,13.00
2019-04-03T14:22:13.813Z,13.17
2019-04-03T14:24:48.840Z,13.15
2019-04-03T14:27:21.845Z,13.15
2019-04-03T14:29:47.490Z,13.20
2019-04-03T14:32:19.837Z,13.22
2019-04-03T14:34:49.346Z,13.16
2019-04-03T14:37:23.363Z,13.29
2019-04-03T14:39:51.170Z,13.31
2019-04-03T14:42:21.193Z,13.30
2019-04-03T14:44:51.319Z,13.25
2019-04-03T14:47:22.815Z,13.30
2019-04-03T14:49:53.124Z,13.28
2019-04-03T14:52:23.268Z,13.21
2019-04-03T14:54:53.841Z,13.31
2019-04-03T14:57:25.934Z,13.26
2019-04-03T14:59:56.548Z,13.17
2019-04-03T15:02:26.842Z,13.21
2019-04-03T15:04:56.925Z,13.29
2019-04-03T15:07:27.282Z,13.25
2019-04-03T15:09:59.447Z,13.33
2019-04-03T15:12:29.539Z,13.35
2019-04-03T15:14:59.610Z,13.43
2019-04-03T15:17:29.684Z,13.48
2019-04-03T15:19:59.768Z,13.39
2019-04-03T15:22:32.475Z,13.65
2019-04-03T15:25:01.603Z,13.74
2019-04-03T15:27:31.629Z,13.72
2019-04-03T15:30:02.299Z,14.02
2019-04-03T15:32:33.161Z,13.88
2019-04-03T15:35:03.447Z,14.02
2019-04-03T15:37:33.760Z,13.99
2019-04-03T15:40:04.865Z,13.86
2019-04-03T15:42:38.393Z,14.01
2019-04-03T15:45:08.927Z,14.19
2019-04-03T15:47:44.799Z,14.32
2019-04-03T15:50:11.891Z,14.30
2019-04-03T15:52:44.354Z,14.42
2019-04-03T15:55:14.184Z,14.45
2019-04-03T15:57:44.500Z,14.54
2019-04-03T16:00:14.914Z,14.41
2019-04-03T16:02:46.472Z,14.30
2019-04-03T16:05:16.858Z,14.49
2019-04-03T16:07:47.342Z,14.29
2019-04-03T16:10:17.469Z,14.58
2019-04-03T16:12:47.599Z,14.47
2019-04-03T16:15:20.208Z,14.51
2019-04-03T16:17:51.180Z,14.44
2019-04-03T16:20:21.377Z,14.42
2019-04-03T16:22:51.483Z,14.50
2019-04-03T16:25:21.522Z,14.50
2019-04-03T16:27:51.614Z,14.46
2019-04-03T16:30:21.843Z,14.27
2019-04-03T16:32:52.182Z,14.28
2019-04-03T16:35:22.941Z,14.27
2019-04-03T16:37:55.670Z,14.32
2019-04-03T16:40:25.216Z,14.27
2019-04-03T16:42:55.490Z,14.21
2019-04-03T16:45:25.612Z,14.19
2019-04-03T16:47:55.725Z,14.23
2019-04-03T16:50:27.271Z,14.15
2019-04-03T16:52:57.997Z,14.24
2019-04-03T16:55:28.138Z,14.26
2019-04-03T16:57:58.395Z,14.33
2019-04-03T17:00:29.105Z,14.35
2019-04-03T17:02:59.357Z,14.33
2019-04-03T17:05:29.459Z,14.20
2019-04-03T17:07:59.517Z,14.23
2019-04-03T17:10:29.596Z,14.17
2019-04-03T17:13:00.086Z,14.17
2019-04-03T17:15:30.378Z,14.25
2019-04-03T17:18:00.525Z,13.96
2019-04-03T17:20:30.854Z,14.17
2019-04-03T17:23:00.977Z,14.11
2019-04-03T17:25:44.377Z,14.04
2019-04-03T17:28:07.999Z,14.16
2019-04-03T17:30:34.699Z,14.11
2019-04-03T17:33:05.686Z,14.06
2019-04-03T17:35:35.864Z,14.09
2019-04-03T17:38:06.224Z,14.12
2019-04-03T17:40:37.121Z,14.12
2019-04-03T17:43:07.364Z,14.01
2019-04-03T17:45:37.445Z,13.95
2019-04-03T17:48:07.638Z,13.98
2019-04-03T17:50:37.796Z,13.88
2019-04-03T17:53:07.920Z,13.99
2019-04-03T17:55:38.000Z,13.89
2019-04-03T17:58:08.153Z,13.92
2019-04-03T18:00:38.228Z,13.83
2019-04-03T18:03:08.338Z,13.86
2019-04-03T18:05:38.447Z,13.79
2019-04-03T18:08:08.587Z,13.79
2019-04-03T18:10:38.668Z,13.77
2019-04-03T18:13:08.869Z,13.51
2019-04-03T18:15:38.927Z,13.57
2019-04-03T18:18:09.159Z,13.57
2019-04-03T18:20:39.286Z,13.38
2019-04-03T18:23:10.766Z,13.38
2019-04-03T18:25:40.927Z,13.35
2019-04-03T18:28:11.029Z,13.33
2019-04-03T18:30:42.451Z,13.22
2019-04-03T18:33:16.757Z,13.13
2019-04-03T18:35:45.047Z,13.06
2019-04-03T18:38:15.173Z,13.11
2019-04-03T18:40:46.403Z,13.16
2019-04-03T18:43:16.665Z,13.17
2019-04-03T18:45:46.829Z,13.06
2019-04-03T18:48:17.082Z,13.01
2019-04-03T18:50:47.143Z,13.05
2019-04-03T18:53:17.269Z,12.91
2019-04-03T18:55:47.367Z,12.99
2019-04-03T18:58:17.526Z,12.98
2019-04-03T19:00:47.641Z,13.03
2019-04-03T19:03:17.889Z,12.97
2019-04-03T19:05:47.991Z,12.94
2019-04-03T19:08:18.796Z,12.80
2019-04-03T19:11:01.347Z,12.89
2019-04-03T19:13:20.788Z,13.00
2019-04-03T19:15:50.908Z,12.95
2019-04-03T19:18:21.105Z,12.96
2019-04-03T19:20:51.172Z,12.95
2019-04-03T19:23:21.270Z,12.73
2019-04-03T19:25:51.363Z,12.81
2019-04-03T19:28:21.527Z,12.57
2019-04-03T19:30:51.638Z,12.60
2019-04-03T19:33:21.729Z,12.60
2019-04-03T19:35:52.065Z,12.54
2019-04-03T19:38:22.197Z,12.57
2019-04-03T19:40:52.355Z,12.55
2019-04-03T19:43:22.515Z,12.52
2019-04-03T19:45:52.655Z,12.30
2019-04-03T19:48:25.383Z,12.40
2019-04-03T19:50:54.543Z,12.24
2019-04-03T19:53:24.612Z,12.27
2019-04-03T19:55:55.362Z,12.24
2019-04-03T19:58:28.930Z,12.29
2019-04-03T20:00:57.424Z,12.07
2019-04-03T20:03:27.524Z,11.96
2019-04-03T20:05:57.608Z,11.82
2019-04-03T20:08:28.064Z,11.82
2019-04-03T20:10:59.440Z,11.87
2019-04-03T20:13:29.552Z,11.82
2019-04-03T20:15:59.632Z,11.83
2019-04-03T20:18:29.698Z,11.83
2019-04-03T20:20:59.790Z,11.86
2019-04-03T20:23:30.243Z,11.83
2019-04-03T20:26:00.469Z,11.67
2019-04-03T20:28:30.592Z,11.67
2019-04-03T20:31:00.768Z,11.73
2019-04-03T20:33:30.887Z,11.66
2019-04-03T20:36:02.684Z,11.60
2019-04-03T20:38:32.781Z,11.59
2019-04-03T20:41:03.741Z,11.38
2019-04-03T20:43:36.655Z,11.38
2019-04-03T20:46:06.780Z,11.52
2019-04-03T20:48:36.838Z,11.55
2019-04-03T20:51:08.803Z,11.55
2019-04-03T20:53:38.700Z,11.59
2019-04-03T20:56:08.825Z,11.53
2019-04-03T20:58:40.771Z,11.53
2019-04-03T21:01:10.755Z,11.56
2019-04-03T21:03:41.832Z,11.56
2019-04-03T21:06:12.574Z,11.62
2019-04-03T21:08:42.654Z,11.62
2019-04-03T21:11:12.786Z,11.80
2019-04-03T21:13:42.970Z,11.71
2019-04-03T21:16:13.045Z,11.72
2019-04-03T21:18:43.164Z,11.82
2019-04-03T21:21:13.396Z,11.82
2019-04-03T21:23:45.988Z,11.73
2019-04-03T21:26:16.193Z,11.81
2019-04-03T21:28:46.275Z,11.82
2019-04-03T21:31:16.474Z,11.65
2019-04-03T21:33:46.633Z,11.86
2019-04-03T21:36:16.830Z,11.74
2019-04-03T21:38:46.956Z,11.74
2019-04-03T21:41:20.343Z,11.70
2019-04-03T21:43:48.932Z,11.61
2019-04-03T21:46:19.041Z,11.66
2019-04-03T21:48:49.100Z,11.70
2019-04-03T21:51:20.864Z,11.70
2019-04-03T21:53:50.990Z,11.38
2019-04-03T21:56:21.052Z,11.58
2019-04-03T21:58:51.228Z,11.73
2019-04-03T22:01:23.392Z,11.66
2019-04-03T22:03:53.572Z,11.69
2019-04-03T22:06:26.757Z,11.66
2019-04-03T22:08:55.489Z,11.76
2019-04-03T22:11:25.608Z,11.89
2019-04-03T22:13:55.834Z,11.77
2019-04-03T22:16:26.066Z,11.73
2019-04-03T22:18:56.190Z,11.88
2019-04-03T22:21:26.255Z,11.70
2019-04-03T22:23:57.046Z,11.91
2019-04-03T22:26:27.156Z,11.54
2019-04-03T22:28:57.334Z,11.76
2019-04-03T22:31:27.429Z,11.87
2019-04-03T22:33:58.909Z,11.56
2019-04-03T22:36:29.656Z,11.48
2019-04-03T22:38:59.807Z,11.49
2019-04-03T22:41:29.888Z,11.49
2019-04-03T22:44:00.042Z,11.43
2019-04-03T22:46:30.194Z,11.35
2019-04-03T22:49:00.641Z,11.33
2019-04-03T22:51:30.777Z,11.17
2019-04-03T22:54:00.934Z,11.13
2019-04-03T22:56:31.012Z,11.13
2019-04-03T22:59:01.100Z,11.08
2019-04-03T23:01:31.178Z,11.09
2019-04-03T23:04:04.840Z,11.19
2019-04-03T23:06:33.030Z,11.19
2019-04-03T23:09:04.448Z,11.11
2019-04-03T23:11:34.642Z,11.10
2019-04-03T23:14:06.890Z,11.19
2019-04-03T23:16:37.710Z,10.66
2019-04-03T23:19:07.835Z,10.95
2019-04-03T23:21:37.921Z,11.23
2019-04-03T23:24:07.999Z,11.26
2019-04-03T23:26:38.080Z,11.38
2019-04-03T23:29:08.265Z,11.43
2019-04-03T23:31:38.350Z,11.43
2019-04-03T23:34:08.517Z,11.45
2019-04-03T23:36:38.644Z,11.67
2019-04-03T23:39:09.653Z,11.57
2019-04-03T23:41:39.825Z,11.53
2019-04-03T23:44:10.964Z,11.40
2019-04-03T23:46:41.786Z,11.30
2019-04-03T23:49:12.116Z,10.89
2019-04-03T23:51:42.250Z,10.86
2019-04-03T23:54:12.382Z,10.84
2019-04-03T23:56:42.503Z,10.75
2019-04-03T23:59:12.988Z,10.78
